Saint Louis, MO

9:15 AM CDT on June 02, 2015 (GMT -0500)
Saint Louis Downtown | | Change Station
CLOSE
Current Station
Airport
Location: Cahokia,
Elevation: 410 ft
Nearby Weather Stations

Elev 410 ft 38.57 °N, 90.16 °W | Updated 22 minutes ago

Overcast
Overcast
63 °F
Feels Like 63 °F
N
7
Wind Variable Wind from NE

Today
High -- | Low -- °F
--% Chance of Precip.
Yesterday
High -- | Low -- °F
Precip. -- in
5:37 AM 8:20 PM
Full, 100% visible
Pressure 30.15 in
Visibility 10.0 miles
Clouds Overcast 2400 ft
Dew Point 53 °F
Humidity 70%
Rainfall 0.00 in
Snow Depth Not available.
UV 1 out of 12
Pollen 7.80 out of 12
Air Quality Not available.
Flu Activity Sporadic
METAR KCPS 021353Z 04006KT 10SM OVC024 17/12 A3015 RMK AO2 SLP208 T01720117

More Conditions Fewer Conditions

Pressure 30.15 in
Visibility 10.0 miles
Clouds Overcast 2400 ft
Dew Point 53 °F
Humidity 70%
Rainfall 0.00 in
Snow Depth Not available.
UV 1 out of 12
Pollen 7.80 out of 12
Air Quality Not available.
Flu Activity Sporadic
METAR KCPS 021353Z 04006KT 10SM OVC024 17/12 A3015 RMK AO2 SLP208 T01720117

More Conditions Fewer Conditions

10-Day Weather Forecast

Almanac

Astronomy

Jun. 02, 2015 Rise Set
Actual Time
Civil Twilight
Nautical Twilight
Astronomical Twilight
Moon
Length of Visible Light
Length of Day
Tomorrow will be .
, % of the Moon is Illuminated

Today's Extremes

State Highs State Lows

Community

WunderPhotos

Upload Photos

1,825,917 photos uploaded!

WunderBlogs® & News

Nearby

Air Quality

  Air Quality AQ Index Pollutant
Not available.

Snow Depth

Station Depth Elevation

Earthquake Activity

City Distance Mag. Time & Date
Minimum magnitude displayed is 2.5.

Coastal Water Temperatures

Place Temperature

Stations

Nearby Weather Stations

Station Location Temp. Windchill Dew Point Humidity Wind Precip. Elev Updated Type